createdAt,value
2023-04-24T00:01:59.494Z,87.10
2023-04-24T00:04:27.173Z,88.20
2023-04-24T00:06:58.230Z,87.60
2023-04-24T00:09:25.309Z,87.30
2023-04-24T00:11:52.097Z,86.60
2023-04-24T00:14:18.820Z,86.80
2023-04-24T00:16:45.718Z,85.90
2023-04-24T00:19:13.736Z,86.30
2023-04-24T00:21:42.043Z,86.50
2023-04-24T00:24:11.851Z,86.90
2023-04-24T00:26:38.595Z,86.30
2023-04-24T00:29:05.293Z,86.20
2023-04-24T00:31:32.125Z,85.60
2023-04-24T00:33:59.167Z,86.80
2023-04-24T00:36:26.074Z,84.50
2023-04-24T00:38:52.827Z,84.70
2023-04-24T00:41:19.977Z,83.80
2023-04-24T00:43:47.193Z,83.80
2023-04-24T00:46:14.705Z,84.70
2023-04-24T00:48:41.906Z,83.40
2023-04-24T00:51:09.727Z,83.00
2023-04-24T00:53:36.585Z,83.60
2023-04-24T00:56:03.912Z,83.00
2023-04-24T00:58:32.220Z,83.70
2023-04-24T01:01:02.026Z,83.90
2023-04-24T01:03:32.981Z,83.40
2023-04-24T01:06:00.297Z,83.60
2023-04-24T01:08:29.096Z,82.80
2023-04-24T01:10:57.778Z,82.50
2023-04-24T01:13:25.006Z,83.40
2023-04-24T01:15:52.218Z,82.80
2023-04-24T01:18:19.065Z,82.60
2023-04-24T01:20:47.793Z,83.30
2023-04-24T01:23:14.864Z,84.50
2023-04-24T01:25:41.746Z,84.80
2023-04-24T01:28:08.540Z,85.40
2023-04-24T01:30:35.248Z,85.20
2023-04-24T01:33:02.531Z,84.80
2023-04-24T01:35:29.391Z,85.40
2023-04-24T01:37:56.117Z,85.90
2023-04-24T01:40:22.894Z,85.50
2023-04-24T01:42:49.893Z,86.30
2023-04-24T01:45:16.651Z,86.60
2023-04-24T01:47:43.868Z,87.70
2023-04-24T01:50:11.083Z,87.20
2023-04-24T01:52:37.829Z,87.10
2023-04-24T01:55:05.447Z,87.60
2023-04-24T01:57:32.844Z,87.50
2023-04-24T01:59:59.682Z,87.40
2023-04-24T02:02:28.635Z,87.90
2023-04-24T02:04:55.543Z,87.50
2023-04-24T02:07:22.712Z,88.30
2023-04-24T02:09:49.514Z,86.60
2023-04-24T02:12:18.333Z,87.50
2023-04-24T02:14:45.464Z,86.20
2023-04-24T02:17:14.234Z,86.40
2023-04-24T02:19:41.113Z,87.60
2023-04-24T02:22:08.142Z,87.50
2023-04-24T02:24:34.919Z,88.80
2023-04-24T02:27:03.067Z,88.60
2023-04-24T02:29:29.873Z,89.60
2023-04-24T02:31:56.591Z,88.40
2023-04-24T02:34:24.096Z,87.90
2023-04-24T02:36:51.227Z,88.50
2023-04-24T02:39:17.980Z,89.00
2023-04-24T02:41:45.018Z,88.50
2023-04-24T02:44:11.798Z,88.50
2023-04-24T02:46:38.648Z,89.90
2023-04-24T02:49:05.433Z,90.00
2023-04-24T02:51:32.136Z,90.00
2023-04-24T02:53:58.895Z,89.40
2023-04-24T02:56:25.808Z,89.30
2023-04-24T02:58:52.500Z,88.80
2023-04-24T03:01:19.258Z,86.70
2023-04-24T03:03:46.183Z,87.60
2023-04-24T03:06:13.006Z,86.80
2023-04-24T03:08:39.744Z,86.70
2023-04-24T03:11:06.475Z,85.60
2023-04-24T03:13:33.173Z,86.10
2023-04-24T03:16:00.476Z,84.90
2023-04-24T03:18:27.215Z,84.40
2023-04-24T03:20:54.030Z,84.70
2023-04-24T03:23:20.816Z,85.30
2023-04-24T03:25:49.452Z,84.40
2023-04-24T03:28:16.229Z,84.30
2023-04-24T03:30:43.078Z,83.80
2023-04-24T03:33:10.765Z,83.70
2023-04-24T03:35:37.585Z,84.30
2023-04-24T03:38:05.682Z,84.90
2023-04-24T03:40:34.556Z,85.30
2023-04-24T03:43:01.304Z,84.50
2023-04-24T03:45:28.035Z,85.30
2023-04-24T03:47:54.819Z,85.90
2023-04-24T03:50:21.710Z,86.00
2023-04-24T03:52:48.459Z,85.10
2023-04-24T03:55:15.718Z,85.10
2023-04-24T03:57:42.432Z,84.70
2023-04-24T04:00:10.128Z,84.60
2023-04-24T04:02:37.211Z,84.50
2023-04-24T04:05:04.411Z,84.30
2023-04-24T04:07:31.237Z,84.20
2023-04-24T04:09:57.952Z,84.50
2023-04-24T04:12:24.748Z,85.40
2023-04-24T04:14:51.758Z,85.20
2023-04-24T04:17:18.905Z,84.70
2023-04-24T04:19:45.863Z,84.70
2023-04-24T04:22:12.590Z,84.70
2023-04-24T04:24:41.563Z,84.70
2023-04-24T04:27:09.199Z,83.90
2023-04-24T04:29:36.744Z,83.70
2023-04-24T04:32:03.822Z,83.20
2023-04-24T04:34:30.805Z,81.50
2023-04-24T04:37:00.469Z,82.00
2023-04-24T04:39:29.181Z,81.50
2023-04-24T04:41:55.995Z,80.90
2023-04-24T04:44:22.759Z,81.10
2023-04-24T04:46:49.631Z,81.10
2023-04-24T04:49:17.765Z,80.70
2023-04-24T04:51:44.666Z,81.10
2023-04-24T04:54:11.415Z,80.90
2023-04-24T04:56:38.199Z,79.40
2023-04-24T04:59:04.973Z,78.90
2023-04-24T05:01:31.815Z,79.40
2023-04-24T05:03:58.683Z,79.80
2023-04-24T05:06:26.225Z,79.90
2023-04-24T05:08:57.033Z,79.30
2023-04-24T05:11:24.456Z,78.10
2023-04-24T05:13:51.394Z,77.70
2023-04-24T05:16:18.210Z,77.60
2023-04-24T05:18:44.993Z,77.30
2023-04-24T05:21:11.709Z,76.70
2023-04-24T05:23:38.445Z,75.30
2023-04-24T05:26:07.530Z,75.90
2023-04-24T05:28:37.444Z,75.10
2023-04-24T05:31:04.525Z,74.80
2023-04-24T05:33:31.704Z,75.30
2023-04-24T05:35:58.729Z,74.80
2023-04-24T05:38:25.617Z,74.90
2023-04-24T05:40:52.386Z,75.60
2023-04-24T05:43:19.146Z,75.90
2023-04-24T05:45:45.962Z,74.70
2023-04-24T05:48:12.668Z,74.30
2023-04-24T05:50:39.398Z,75.50
2023-04-24T05:53:07.982Z,75.10
2023-04-24T05:55:34.805Z,74.80
2023-04-24T05:58:01.681Z,74.80
2023-04-24T06:00:29.707Z,74.30
2023-04-24T06:02:56.819Z,73.40
2023-04-24T06:05:23.847Z,74.00
2023-04-24T06:07:51.038Z,72.50
2023-04-24T06:10:17.805Z,72.50
2023-04-24T06:12:44.579Z,72.50
2023-04-24T06:15:11.770Z,72.00
2023-04-24T06:17:38.550Z,71.90
2023-04-24T06:20:07.324Z,70.60
2023-04-24T06:22:34.097Z,70.40
2023-04-24T06:25:01.800Z,68.40
2023-04-24T06:27:28.566Z,68.90
2023-04-24T06:29:56.195Z,68.50
2023-04-24T06:32:25.165Z,68.40
2023-04-24T06:34:54.910Z,66.50
2023-04-24T06:37:22.152Z,67.10
2023-04-24T06:39:48.973Z,67.80
2023-04-24T06:42:15.982Z,68.30
2023-04-24T06:44:43.027Z,67.10
2023-04-24T06:47:11.167Z,67.10
2023-04-24T06:49:38.739Z,66.00
2023-04-24T06:52:05.683Z,66.10
2023-04-24T06:54:32.912Z,65.80
2023-04-24T06:57:01.783Z,64.80
2023-04-24T06:59:29.184Z,64.30
2023-04-24T07:01:56.658Z,63.90
2023-04-24T07:04:23.616Z,62.70
2023-04-24T07:06:50.655Z,62.70
2023-04-24T07:09:19.371Z,61.60
2023-04-24T07:11:46.734Z,62.10
2023-04-24T07:14:13.768Z,61.60
2023-04-24T07:16:40.967Z,62.20
2023-04-24T07:19:07.978Z,62.30
2023-04-24T07:21:34.797Z,62.30
2023-04-24T07:24:02.018Z,63.00
2023-04-24T07:26:30.692Z,64.20
2023-04-24T07:28:57.529Z,65.10
2023-04-24T07:31:24.338Z,64.00
2023-04-24T07:33:51.501Z,63.70
2023-04-24T07:36:19.984Z,64.20
2023-04-24T07:38:47.342Z,64.30
2023-04-24T07:41:15.026Z,66.20
2023-04-24T07:43:42.842Z,67.90
2023-04-24T07:46:10.648Z,69.30
2023-04-24T07:48:37.983Z,69.80
2023-04-24T07:51:04.890Z,66.60
2023-04-24T07:53:31.610Z,66.40
2023-04-24T07:55:58.472Z,68.70
2023-04-24T07:58:25.268Z,70.30
2023-04-24T08:00:52.292Z,68.90
2023-04-24T08:03:20.974Z,65.10
2023-04-24T08:05:48.571Z,65.50
2023-04-24T08:08:15.625Z,63.20
2023-04-24T08:10:42.470Z,63.90
2023-04-24T08:13:09.432Z,64.20
2023-04-24T08:15:36.257Z,63.70
2023-04-24T08:18:03.041Z,61.60
2023-04-24T08:20:29.870Z,59.10
2023-04-24T08:22:57.494Z,59.30
2023-04-24T08:25:25.699Z,58.70
2023-04-24T08:27:52.817Z,58.10
2023-04-24T08:30:19.852Z,57.60
2023-04-24T08:32:46.808Z,55.50
2023-04-24T08:35:13.761Z,53.10
2023-04-24T08:37:40.666Z,55.00
2023-04-24T08:40:17.870Z,53.90
2023-04-24T08:42:45.543Z,51.80
2023-04-24T08:45:13.868Z,48.10
2023-04-24T08:47:42.258Z,48.20
2023-04-24T08:50:10.590Z,47.20
2023-04-24T08:52:37.886Z,47.50
2023-04-24T08:55:05.157Z,47.10
2023-04-24T08:57:33.409Z,48.90
2023-04-24T09:00:00.702Z,45.60
2023-04-24T09:02:27.712Z,46.40
2023-04-24T09:04:56.687Z,47.20
2023-04-24T09:07:26.438Z,46.80
2023-04-24T09:09:53.489Z,46.40
2023-04-24T09:12:20.647Z,45.40
2023-04-24T09:14:49.123Z,44.10
2023-04-24T09:17:16.018Z,41.80
2023-04-24T09:19:43.019Z,41.70
2023-04-24T09:22:12.198Z,41.80
2023-04-24T09:24:40.040Z,43.00
2023-04-24T09:27:08.941Z,40.80
2023-04-24T09:29:37.532Z,42.00
2023-04-24T09:32:26.871Z,40.90
2023-04-24T09:35:15.097Z,39.20
2023-04-24T09:37:44.767Z,39.50
2023-04-24T09:40:19.247Z,39.00
2023-04-24T09:42:47.109Z,38.70
2023-04-24T09:45:15.523Z,38.90
2023-04-24T09:47:43.411Z,38.70
2023-04-24T09:50:12.085Z,39.40
2023-04-24T09:52:46.438Z,38.70
2023-04-24T09:55:21.534Z,38.40
2023-04-24T09:58:09.610Z,37.20
2023-04-24T10:00:36.531Z,36.90
2023-04-24T10:03:09.574Z,36.80
2023-04-24T10:05:37.894Z,37.20
2023-04-24T10:08:10.037Z,36.20
2023-04-24T10:10:41.129Z,37.30
2023-04-24T10:13:10.117Z,36.80
2023-04-24T10:15:37.926Z,36.00
2023-04-24T10:18:07.461Z,37.50
2023-04-24T10:20:35.891Z,38.60
2023-04-24T10:23:04.091Z,40.10
2023-04-24T10:25:32.610Z,43.70
2023-04-24T10:28:01.049Z,44.50
2023-04-24T10:30:36.258Z,47.60
2023-04-24T10:33:05.168Z,51.20
2023-04-24T10:35:35.239Z,52.60
2023-04-24T10:38:14.386Z,54.80
2023-04-24T10:40:41.422Z,56.80
2023-04-24T10:43:11.849Z,57.70
2023-04-24T10:45:39.772Z,57.60
2023-04-24T10:48:12.252Z,58.30
2023-04-24T10:50:49.242Z,59.00
2023-04-24T10:53:18.573Z,59.80
2023-04-24T10:55:49.509Z,58.70
2023-04-24T10:58:17.938Z,56.70
2023-04-24T11:00:46.060Z,56.40
2023-04-24T11:03:30.533Z,56.60
2023-04-24T11:06:05.638Z,56.00
2023-04-24T11:08:32.470Z,56.70
2023-04-24T11:11:29.440Z,55.00
2023-04-24T11:13:56.471Z,55.60
2023-04-24T11:16:30.025Z,54.80
2023-04-24T11:19:20.234Z,54.30
2023-04-24T11:21:55.365Z,51.30
2023-04-24T11:24:40.069Z,52.60
2023-04-24T11:27:23.361Z,49.80
2023-04-24T11:30:00.907Z,46.30
2023-04-24T11:32:33.741Z,45.20
2023-04-24T11:35:02.180Z,43.90
2023-04-24T11:37:37.864Z,43.40
2023-04-24T11:40:06.526Z,41.50
2023-04-24T11:42:43.974Z,40.60
2023-04-24T11:45:12.230Z,38.20
2023-04-24T11:47:39.787Z,36.90
2023-04-24T11:50:08.995Z,35.70
2023-04-24T11:52:44.266Z,35.60
2023-04-24T11:55:20.307Z,34.50
2023-04-24T11:57:48.974Z,35.40
2023-04-24T12:00:19.954Z,34.90
2023-04-24T12:02:47.326Z,36.70
2023-04-24T12:05:25.637Z,37.30
2023-04-24T12:07:55.409Z,35.80
2023-04-24T12:10:23.462Z,36.70
2023-04-24T12:12:52.297Z,35.10
2023-04-24T12:15:21.171Z,35.30
2023-04-24T12:17:49.026Z,35.40
2023-04-24T12:20:16.151Z,31.50
2023-04-24T12:22:56.605Z,31.60
2023-04-24T12:25:31.291Z,31.10
2023-04-24T12:28:03.992Z,31.90
2023-04-24T12:30:36.523Z,32.70
2023-04-24T12:33:04.580Z,30.80
2023-04-24T12:35:34.601Z,31.20
2023-04-24T12:38:09.331Z,31.60
2023-04-24T12:40:36.315Z,30.00
2023-04-24T12:43:13.332Z,30.80
2023-04-24T12:45:40.088Z,30.70
2023-04-24T12:48:06.938Z,30.00
2023-04-24T12:50:33.940Z,30.90
2023-04-24T12:53:01.031Z,30.00
2023-04-24T12:55:27.768Z,30.70
2023-04-24T12:57:56.362Z,29.60
2023-04-24T13:00:23.168Z,29.70
2023-04-24T13:02:50.413Z,28.30
2023-04-24T13:05:17.431Z,28.90
2023-04-24T13:07:44.206Z,28.80
2023-04-24T13:10:11.184Z,28.10
2023-04-24T13:12:38.538Z,28.10
2023-04-24T13:15:06.225Z,27.70
2023-04-24T13:17:33.246Z,26.70
2023-04-24T13:20:00.307Z,26.00
2023-04-24T13:22:27.100Z,26.00
2023-04-24T13:24:53.948Z,26.50
2023-04-24T13:27:20.800Z,26.40
2023-04-24T13:29:47.625Z,25.90
2023-04-24T13:32:14.875Z,25.80
2023-04-24T13:34:41.688Z,25.80
2023-04-24T13:37:09.183Z,24.70
2023-04-24T13:39:36.457Z,24.10
2023-04-24T13:42:04.884Z,24.50
2023-04-24T13:44:32.192Z,24.40
2023-04-24T13:46:59.398Z,24.20
2023-04-24T13:49:27.007Z,25.10
2023-04-24T13:51:55.623Z,26.00
2023-04-24T13:54:24.264Z,26.30
2023-04-24T13:56:51.825Z,26.60
2023-04-24T13:59:18.571Z,26.80
2023-04-24T14:01:46.163Z,26.70
2023-04-24T14:04:13.462Z,26.30
2023-04-24T14:06:40.459Z,26.20
2023-04-24T14:09:07.928Z,26.10
2023-04-24T14:11:36.101Z,25.80
2023-04-24T14:14:02.960Z,25.60
2023-04-24T14:16:29.895Z,25.20
2023-04-24T14:18:57.262Z,25.40
2023-04-24T14:21:24.036Z,25.60
2023-04-24T14:23:51.266Z,25.90
2023-04-24T14:26:18.040Z,25.90
2023-04-24T14:28:44.864Z,26.20
2023-04-24T14:31:11.945Z,26.30
2023-04-24T14:33:38.708Z,26.20
2023-04-24T14:36:06.750Z,26.50
2023-04-24T14:38:33.820Z,26.10
2023-04-24T14:43:31.280Z,26.40
2023-04-24T14:45:58.142Z,26.10
2023-04-24T14:48:24.888Z,26.40
2023-04-24T14:50:51.728Z,26.40
2023-04-24T14:53:18.681Z,26.40
2023-04-24T14:55:45.845Z,26.00
2023-04-24T14:58:12.667Z,26.50
2023-04-24T15:00:39.460Z,26.00
2023-04-24T15:03:06.743Z,25.90
2023-04-24T15:05:33.865Z,26.10
2023-04-24T15:08:00.876Z,26.10
2023-04-24T15:10:27.671Z,24.80
2023-04-24T15:12:54.457Z,24.70
2023-04-24T15:15:21.224Z,24.30
2023-04-24T15:17:48.107Z,24.70
2023-04-24T15:20:14.940Z,24.70
2023-04-24T15:22:41.784Z,25.00
2023-04-24T15:25:08.918Z,25.20
2023-04-24T15:27:43.563Z,24.90
2023-04-24T15:30:11.731Z,25.50
2023-04-24T15:32:39.563Z,25.00
2023-04-24T15:35:10.557Z,25.20
2023-04-24T15:37:38.991Z,25.00
2023-04-24T15:40:08.513Z,24.60
2023-04-24T15:42:36.155Z,24.30
2023-04-24T15:45:03.536Z,24.50
2023-04-24T15:47:30.704Z,24.20
2023-04-24T15:49:58.655Z,24.20
2023-04-24T15:52:25.796Z,24.50
2023-04-24T15:54:52.738Z,24.40
2023-04-24T15:57:19.684Z,24.70
2023-04-24T15:59:46.690Z,24.80
2023-04-24T16:02:19.169Z,25.00
2023-04-24T16:04:48.050Z,24.90
2023-04-24T16:07:15.784Z,24.60
2023-04-24T16:09:42.636Z,24.80
2023-04-24T16:12:10.411Z,24.80
2023-04-24T16:14:38.333Z,24.40
2023-04-24T16:17:05.496Z,24.70
2023-04-24T16:19:34.226Z,24.70
2023-04-24T16:22:01.440Z,25.00
2023-04-24T16:24:28.859Z,25.10
2023-04-24T16:26:56.654Z,25.70
2023-04-24T16:29:23.870Z,25.60
2023-04-24T16:31:50.970Z,25.40
2023-04-24T16:34:17.848Z,25.20
2023-04-24T16:36:44.719Z,25.60
2023-04-24T16:39:11.623Z,25.70
2023-04-24T16:41:38.585Z,25.00
2023-04-24T16:44:05.945Z,25.10
2023-04-24T16:46:32.902Z,25.40
2023-04-24T16:49:00.230Z,25.40
2023-04-24T16:51:27.865Z,25.80
2023-04-24T16:53:54.860Z,25.20
2023-04-24T16:56:21.668Z,25.20
2023-04-24T16:58:48.658Z,25.30
2023-04-24T17:01:15.778Z,25.90
2023-04-24T17:03:42.810Z,26.10
2023-04-24T17:06:09.914Z,25.90
2023-04-24T17:08:36.633Z,26.00
2023-04-24T17:11:03.492Z,26.00
2023-04-24T17:13:30.270Z,26.30
2023-04-24T17:15:57.116Z,26.30
2023-04-24T17:18:24.453Z,27.30
2023-04-24T17:20:51.506Z,26.90
2023-04-24T17:23:18.357Z,27.20
2023-04-24T17:25:45.141Z,27.20
2023-04-24T17:28:32.393Z,27.60
2023-04-24T17:30:59.365Z,28.00
2023-04-24T17:33:27.098Z,28.60
2023-04-24T17:35:54.425Z,28.60
2023-04-24T17:38:21.589Z,28.60
2023-04-24T17:40:52.756Z,28.40
2023-04-24T17:43:20.650Z,28.60
2023-04-24T17:45:48.861Z,28.90
2023-04-24T17:48:16.013Z,29.00
2023-04-24T17:50:42.992Z,29.00
2023-04-24T17:53:11.094Z,28.90
2023-04-24T17:55:43.627Z,29.10
2023-04-24T17:58:10.683Z,29.10
2023-04-24T18:00:37.731Z,29.60
2023-04-24T18:03:05.816Z,29.80
2023-04-24T18:05:37.252Z,29.80
2023-04-24T18:08:05.158Z,30.00
2023-04-24T18:10:33.132Z,30.50
2023-04-24T18:13:00.024Z,30.40
2023-04-24T18:15:27.071Z,30.60
2023-04-24T18:17:54.012Z,30.90
2023-04-24T18:20:20.884Z,30.80
2023-04-24T18:22:48.031Z,30.90
2023-04-24T18:25:15.355Z,31.00
2023-04-24T18:27:44.158Z,31.40
2023-04-24T18:30:14.513Z,31.30
2023-04-24T18:32:42.195Z,31.80
2023-04-24T18:35:09.676Z,32.10
2023-04-24T18:37:36.395Z,32.50
2023-04-24T18:40:03.771Z,32.70
2023-04-24T18:42:30.756Z,32.90
2023-04-24T18:45:01.699Z,33.00
2023-04-24T18:47:28.791Z,33.30
2023-04-24T18:49:55.763Z,33.40
2023-04-24T18:52:23.899Z,33.90
2023-04-24T18:54:50.801Z,34.00
2023-04-24T18:57:17.733Z,33.90
2023-04-24T18:59:44.562Z,33.60
2023-04-24T19:02:11.516Z,33.50
2023-04-24T19:04:38.453Z,33.40
2023-04-24T19:07:05.506Z,33.60
2023-04-24T19:09:32.332Z,34.00
2023-04-24T19:12:00.207Z,34.30
2023-04-24T19:14:27.119Z,34.30
2023-04-24T19:16:53.987Z,34.00
2023-04-24T19:19:21.570Z,34.30
2023-04-24T19:21:50.050Z,34.20
2023-04-24T19:24:18.985Z,34.20
2023-04-24T19:26:46.238Z,34.30
2023-04-24T19:29:13.113Z,34.40
2023-04-24T19:31:40.017Z,34.30
2023-04-24T19:34:06.891Z,34.50
2023-04-24T19:36:33.894Z,34.70
2023-04-24T19:39:01.266Z,35.00
2023-04-24T19:41:28.146Z,35.30
2023-04-24T19:43:54.961Z,35.50
2023-04-24T19:46:21.885Z,36.10
2023-04-24T19:48:48.919Z,36.10
2023-04-24T19:51:15.964Z,36.00
2023-04-24T19:53:43.569Z,36.40
2023-04-24T19:56:10.597Z,36.40
2023-04-24T19:58:37.389Z,36.30
2023-04-24T20:01:05.924Z,36.40
2023-04-24T20:03:34.298Z,36.50
2023-04-24T20:06:02.104Z,36.90
2023-04-24T20:08:28.977Z,37.10
2023-04-24T20:10:58.015Z,37.60
2023-04-24T20:13:28.162Z,37.80
2023-04-24T20:15:55.241Z,38.10
2023-04-24T20:18:22.243Z,39.00
2023-04-24T20:20:49.257Z,39.40
2023-04-24T20:23:16.071Z,40.00
2023-04-24T20:25:42.919Z,40.80
2023-04-24T20:28:09.669Z,41.70
2023-04-24T20:30:38.046Z,42.50
2023-04-24T20:33:05.006Z,42.70
2023-04-24T20:35:31.952Z,43.10
2023-04-24T20:37:59.596Z,43.20
2023-04-24T20:40:28.017Z,43.60
2023-04-24T20:42:55.768Z,43.30
2023-04-24T20:45:24.167Z,43.20
2023-04-24T20:47:51.315Z,43.10
2023-04-24T20:50:18.881Z,42.80
2023-04-24T20:52:45.855Z,42.70
2023-04-24T20:55:12.874Z,42.90
2023-04-24T20:57:40.077Z,43.10
2023-04-24T21:00:08.885Z,44.60
2023-04-24T21:02:46.147Z,44.40
2023-04-24T21:05:13.053Z,44.70
2023-04-24T21:07:39.825Z,45.00
2023-04-24T21:10:07.294Z,45.70
2023-04-24T21:12:34.116Z,45.60
2023-04-24T21:15:01.192Z,45.90
2023-04-24T21:17:28.018Z,46.50
2023-04-24T21:19:56.425Z,47.30
2023-04-24T21:22:23.237Z,47.60
2023-04-24T21:24:50.502Z,47.50
2023-04-24T21:27:17.376Z,48.00
2023-04-24T21:29:44.274Z,48.30
2023-04-24T21:32:11.064Z,48.70
2023-04-24T21:34:37.903Z,49.20
2023-04-24T21:37:04.724Z,50.00
2023-04-24T21:39:31.539Z,50.00
2023-04-24T21:41:58.599Z,50.00
2023-04-24T21:44:26.005Z,50.40
2023-04-24T21:46:52.902Z,50.60
2023-04-24T21:49:19.737Z,50.00
2023-04-24T21:51:46.581Z,50.50
2023-04-24T21:54:14.254Z,51.00
2023-04-24T21:56:41.625Z,51.00
2023-04-24T21:59:09.744Z,51.10
2023-04-24T22:01:36.647Z,50.00
2023-04-24T22:04:04.506Z,50.00
2023-04-24T22:06:33.870Z,50.00
2023-04-24T22:09:00.905Z,49.60
2023-04-24T22:11:28.219Z,49.90
2023-04-24T22:13:56.189Z,50.00
2023-04-24T22:16:24.236Z,49.30
2023-04-24T22:18:55.278Z,48.90
2023-04-24T22:21:22.889Z,48.10
2023-04-24T22:23:50.260Z,48.10
2023-04-24T22:26:17.434Z,48.10
2023-04-24T22:28:44.827Z,48.10
2023-04-24T22:31:12.853Z,47.50
2023-04-24T22:33:39.687Z,47.80
2023-04-24T22:36:06.718Z,48.10
2023-04-24T22:38:33.564Z,47.80
2023-04-24T22:41:00.905Z,48.00
2023-04-24T22:43:27.903Z,48.20
2023-04-24T22:45:54.636Z,48.60
2023-04-24T22:48:21.513Z,48.60
2023-04-24T22:50:48.680Z,48.90
2023-04-24T22:53:15.560Z,49.00
2023-04-24T22:55:42.401Z,49.30
2023-04-24T22:58:09.462Z,49.90
2023-04-24T23:00:36.405Z,49.70
2023-04-24T23:03:03.553Z,50.20
2023-04-24T23:05:31.198Z,50.40
2023-04-24T23:07:58.258Z,50.60
2023-04-24T23:10:25.170Z,50.70
2023-04-24T23:12:51.958Z,50.60
2023-04-24T23:15:18.877Z,50.40
2023-04-24T23:17:45.825Z,50.70
2023-04-24T23:20:14.083Z,50.60
2023-04-24T23:22:41.119Z,50.90
2023-04-24T23:25:08.657Z,50.80
2023-04-24T23:27:35.909Z,51.10
2023-04-24T23:30:03.993Z,51.60
2023-04-24T23:32:30.759Z,52.10
2023-04-24T23:34:57.587Z,52.50
2023-04-24T23:37:24.538Z,53.20
2023-04-24T23:39:51.834Z,53.30
2023-04-24T23:42:18.550Z,53.70
2023-04-24T23:44:45.394Z,53.90
2023-04-24T23:47:12.179Z,54.10
2023-04-24T23:49:39.247Z,54.70
2023-04-24T23:52:08.159Z,55.00
2023-04-24T23:54:35.125Z,55.20
2023-04-24T23:57:02.463Z,55.50
2023-04-24T23:59:29.316Z,56.20
